createdAt,value
2023-04-30T00:00:25.121Z,100273.88
2023-04-30T00:02:51.807Z,100278.17
2023-04-30T00:05:18.817Z,100275.98
2023-04-30T00:07:45.523Z,100277.52
2023-04-30T00:10:12.272Z,100276.70
2023-04-30T00:12:39.235Z,100278.73
2023-04-30T00:15:06.830Z,100276.70
2023-04-30T00:17:33.797Z,100270.79
2023-04-30T00:20:01.209Z,100268.52
2023-04-30T00:22:27.973Z,100258.67
2023-04-30T00:24:54.793Z,100257.94
2023-04-30T00:27:21.780Z,100254.56
2023-04-30T00:29:48.491Z,100253.65
2023-04-30T00:32:15.438Z,100249.95
2023-04-30T00:34:42.355Z,100246.46
2023-04-30T00:37:09.108Z,100245.55
2023-04-30T00:39:35.850Z,100244.26
2023-04-30T00:42:02.912Z,100240.64
2023-04-30T00:44:29.524Z,100236.67
2023-04-30T00:46:56.257Z,100238.66
2023-04-30T00:49:22.931Z,100231.33
2023-04-30T00:51:49.704Z,100229.94
2023-04-30T00:54:16.374Z,100223.56
2023-04-30T00:56:42.989Z,100220.85
2023-04-30T00:59:09.661Z,100222.86
2023-04-30T01:01:36.761Z,100220.52
2023-04-30T01:04:03.375Z,100221.85
2023-04-30T01:06:30.161Z,100220.85
2023-04-30T01:08:57.386Z,100217.61
2023-04-30T01:11:46.090Z,100220.49
2023-04-30T01:14:29.323Z,100220.78
2023-04-30T01:17:08.671Z,100221.29
2023-04-30T01:19:38.312Z,100217.74
2023-04-30T01:22:05.154Z,100214.36
2023-04-30T01:24:43.517Z,100211.49
2023-04-30T01:27:14.613Z,100215.36
2023-04-30T01:29:42.781Z,100214.33
2023-04-30T01:32:12.445Z,100213.64
2023-04-30T01:34:39.967Z,100211.48
2023-04-30T01:37:16.580Z,100209.58
2023-04-30T01:40:23.020Z,100204.81
2023-04-30T01:43:05.752Z,100202.77
2023-04-30T01:45:51.193Z,100201.48
2023-04-30T01:48:40.273Z,100203.61
2023-04-30T01:51:28.615Z,100202.61
2023-04-30T01:53:58.015Z,100198.23
2023-04-30T01:56:31.745Z,100195.45
2023-04-30T01:58:59.042Z,100193.67
2023-04-30T02:01:29.990Z,100191.49
2023-04-30T02:03:56.984Z,100187.72
2023-04-30T02:06:28.614Z,100182.31
2023-04-30T02:08:56.931Z,100186.52
2023-04-30T02:11:24.792Z,100179.86
2023-04-30T02:13:51.411Z,100183.02
2023-04-30T02:16:18.135Z,100180.69
2023-04-30T02:18:45.945Z,100181.89
2023-04-30T02:21:12.735Z,100178.89
2023-04-30T02:23:39.377Z,100181.14
2023-04-30T02:26:06.098Z,100177.92
2023-04-30T02:28:32.753Z,100178.23
2023-04-30T02:30:59.571Z,100172.95
2023-04-30T02:33:26.396Z,100175.02
2023-04-30T02:35:55.224Z,100173.29
2023-04-30T02:38:21.884Z,100180.90
2023-04-30T02:40:48.704Z,100178.00
2023-04-30T02:43:15.400Z,100175.98
2023-04-30T02:45:42.125Z,100177.84
2023-04-30T02:48:08.821Z,100178.44
2023-04-30T02:50:35.626Z,100175.39
2023-04-30T02:53:02.342Z,100175.30
2023-04-30T02:55:28.982Z,100176.04
2023-04-30T02:57:56.301Z,100172.05
2023-04-30T03:00:23.478Z,100169.31
2023-04-30T03:02:50.253Z,100169.47
2023-04-30T03:05:17.823Z,100165.95
2023-04-30T03:07:44.486Z,100165.42
2023-04-30T03:10:11.125Z,100162.70
2023-04-30T03:12:37.958Z,100158.77
2023-04-30T03:15:05.576Z,100161.40
2023-04-30T03:17:32.267Z,100160.20
2023-04-30T03:19:59.037Z,100159.70
2023-04-30T03:22:26.852Z,100162.90
2023-04-30T03:24:53.519Z,100161.30
2023-04-30T03:27:20.174Z,100162.11
2023-04-30T03:29:47.171Z,100166.30
2023-04-30T03:32:13.787Z,100161.29
2023-04-30T03:34:40.668Z,100164.35
2023-04-30T03:37:07.284Z,100162.83
2023-04-30T03:39:33.910Z,100161.86
2023-04-30T03:42:01.807Z,100159.06
2023-04-30T03:44:28.698Z,100154.65
2023-04-30T03:46:55.568Z,100158.38
2023-04-30T03:49:22.227Z,100157.31
2023-04-30T03:51:49.016Z,100156.86
2023-04-30T03:54:15.634Z,100157.23
2023-04-30T03:56:42.412Z,100157.79
2023-04-30T03:59:09.134Z,100160.45
2023-04-30T04:01:36.156Z,100160.11
2023-04-30T04:04:02.888Z,100158.02
2023-04-30T04:06:30.015Z,100159.52
2023-04-30T04:08:56.740Z,100158.41
2023-04-30T04:11:23.360Z,100162.04
2023-04-30T04:13:50.086Z,100163.61
2023-04-30T04:16:16.875Z,100166.72
2023-04-30T04:18:44.471Z,100165.28
2023-04-30T04:21:11.904Z,100161.01
2023-04-30T04:23:39.329Z,100157.86
2023-04-30T04:26:05.956Z,100157.64
2023-04-30T04:28:32.772Z,100158.02
2023-04-30T04:30:59.768Z,100157.61
2023-04-30T04:33:26.458Z,100153.30
2023-04-30T04:35:53.117Z,100155.05
2023-04-30T04:38:19.777Z,100155.48
2023-04-30T04:40:53.578Z,100152.67
2023-04-30T04:43:20.405Z,100154.52
2023-04-30T04:45:48.062Z,100157.85
2023-04-30T04:48:15.187Z,100160.02
2023-04-30T04:50:41.993Z,100157.14
2023-04-30T04:53:08.702Z,100155.15
2023-04-30T04:55:36.041Z,100154.91
2023-04-30T04:58:02.684Z,100159.55
2023-04-30T05:00:29.993Z,100160.27
2023-04-30T05:02:57.026Z,100160.66
2023-04-30T05:05:23.928Z,100158.80
2023-04-30T05:07:52.511Z,100157.60
2023-04-30T05:10:19.376Z,100153.32
2023-04-30T05:12:46.242Z,100147.89
2023-04-30T05:15:12.961Z,100143.83
2023-04-30T05:17:39.760Z,100144.45
2023-04-30T05:20:07.583Z,100140.08
2023-04-30T05:22:34.553Z,100141.61
2023-04-30T05:25:01.196Z,100141.06
2023-04-30T05:27:27.898Z,100143.54
2023-04-30T05:29:54.766Z,100143.46
2023-04-30T05:32:23.095Z,100137.65
2023-04-30T05:34:50.157Z,100134.54
2023-04-30T05:37:19.482Z,100135.73
2023-04-30T05:39:46.781Z,100133.83
2023-04-30T05:42:13.417Z,100131.73
2023-04-30T05:44:41.029Z,100134.38
2023-04-30T05:47:07.818Z,100132.81
2023-04-30T05:49:36.015Z,100128.52
2023-04-30T05:52:03.775Z,100124.95
2023-04-30T05:54:31.193Z,100120.52
2023-04-30T05:56:57.962Z,100119.10
2023-04-30T05:59:24.696Z,100118.85
2023-04-30T06:01:52.190Z,100120.29
2023-04-30T06:04:18.904Z,100125.64
2023-04-30T06:06:45.847Z,100125.07
2023-04-30T06:09:12.710Z,100126.16
2023-04-30T06:11:41.663Z,100122.24
2023-04-30T06:14:10.114Z,100114.66
2023-04-30T06:16:36.948Z,100114.06
2023-04-30T06:19:03.900Z,100112.93
2023-04-30T06:21:30.834Z,100108.36
2023-04-30T06:23:57.496Z,100111.97
2023-04-30T06:26:24.143Z,100108.15
2023-04-30T06:28:50.918Z,100105.39
2023-04-30T06:31:17.552Z,100102.10
2023-04-30T06:33:44.583Z,100104.27
2023-04-30T06:36:11.295Z,100097.62
2023-04-30T06:38:37.890Z,100106.40
2023-04-30T06:41:04.601Z,100102.90
2023-04-30T06:43:31.307Z,100098.13
2023-04-30T06:45:57.968Z,100097.45
2023-04-30T06:48:24.951Z,100096.12
2023-04-30T06:50:51.605Z,100097.63
2023-04-30T06:53:18.408Z,100094.08
2023-04-30T06:55:46.538Z,100084.34
2023-04-30T06:58:13.223Z,100083.50
2023-04-30T07:00:39.992Z,100080.27
2023-04-30T07:03:06.715Z,100074.91
2023-04-30T07:05:33.543Z,100075.67
2023-04-30T07:08:01.609Z,100074.33
2023-04-30T07:10:28.319Z,100067.88
2023-04-30T07:12:55.565Z,100063.05
2023-04-30T07:15:22.197Z,100059.54
2023-04-30T07:17:49.005Z,100058.54
2023-04-30T14:41:44.348Z,99878.79
2023-04-30T14:44:11.114Z,99878.80
2023-04-30T14:46:37.927Z,99886.58
2023-04-30T14:49:05.024Z,99885.73
2023-04-30T14:51:32.433Z,99892.27
2023-04-30T14:53:59.412Z,99887.52
2023-04-30T14:56:26.111Z,99891.75
2023-04-30T14:58:53.668Z,99888.16
2023-04-30T15:01:20.355Z,99884.39
2023-04-30T15:03:47.313Z,99880.56
2023-04-30T15:06:14.346Z,99883.51
2023-04-30T15:08:41.362Z,99880.04
2023-04-30T15:11:10.404Z,99878.73
2023-04-30T15:13:37.664Z,99875.77
2023-04-30T15:16:05.109Z,99877.14
2023-04-30T15:18:32.395Z,99877.19
2023-04-30T15:20:59.222Z,99875.16
2023-04-30T15:23:25.943Z,99877.26
2023-04-30T15:25:53.517Z,99876.29
2023-04-30T15:28:20.678Z,99875.08
2023-04-30T15:30:47.317Z,99876.73
2023-04-30T15:33:14.062Z,99874.66
2023-04-30T15:35:41.653Z,99877.67
2023-04-30T15:38:08.312Z,99876.79
2023-04-30T15:40:36.243Z,99878.23
2023-04-30T15:43:02.873Z,99879.64
2023-04-30T15:45:29.513Z,99881.66
2023-04-30T15:47:56.262Z,99883.88
2023-04-30T15:50:23.048Z,99887.20
2023-04-30T15:52:49.738Z,99888.34
2023-04-30T15:55:16.378Z,99882.79
2023-04-30T15:57:43.178Z,99882.27
2023-04-30T16:00:11.241Z,99881.25
2023-04-30T16:02:41.354Z,99882.56
2023-04-30T16:05:09.074Z,99884.10
2023-04-30T16:07:36.221Z,99882.16
2023-04-30T16:10:03.387Z,99884.23
2023-04-30T16:12:30.220Z,99882.13
2023-04-30T16:14:57.001Z,99877.98
2023-04-30T16:17:24.564Z,99883.02
2023-04-30T16:19:51.453Z,99884.29
2023-04-30T16:22:18.633Z,99880.24
2023-04-30T16:24:45.550Z,99885.98
2023-04-30T16:27:12.492Z,99886.14
2023-04-30T16:29:39.643Z,99886.25
2023-04-30T16:32:06.470Z,99880.13
2023-04-30T16:34:33.304Z,99881.25
2023-04-30T16:37:00.223Z,99879.84
2023-04-30T16:39:26.962Z,99880.39
2023-04-30T16:41:54.267Z,99881.16
2023-04-30T16:44:21.905Z,99879.17
2023-04-30T16:46:49.386Z,99876.52
2023-04-30T16:49:16.722Z,99879.90
2023-04-30T16:51:43.571Z,99887.27
2023-04-30T16:54:10.568Z,99889.20
2023-04-30T16:56:37.296Z,99886.16
2023-04-30T16:59:03.902Z,99886.14
2023-04-30T17:01:30.839Z,99887.58
2023-04-30T17:03:57.753Z,99891.63
2023-04-30T17:06:24.529Z,99898.34
2023-04-30T17:08:53.319Z,99898.98
2023-04-30T17:11:21.297Z,99899.83
2023-04-30T17:13:47.895Z,99900.80
2023-04-30T17:16:14.643Z,99898.97
2023-04-30T17:18:41.801Z,99900.96
2023-04-30T17:21:08.493Z,99907.08
2023-04-30T17:23:35.195Z,99905.80
2023-04-30T17:26:03.878Z,99908.67
2023-04-30T17:28:30.790Z,99908.86
2023-04-30T17:30:58.057Z,99912.87
2023-04-30T17:33:26.728Z,99915.04
2023-04-30T17:35:53.438Z,99911.83
2023-04-30T17:38:20.104Z,99918.55
2023-04-30T17:40:46.737Z,99915.40
2023-04-30T17:43:13.845Z,99917.52
2023-04-30T17:45:40.525Z,99916.02
2023-04-30T17:48:07.950Z,99916.88
2023-04-30T17:50:34.996Z,99915.57
2023-04-30T17:53:02.199Z,99914.64
2023-04-30T17:55:28.927Z,99911.58
2023-04-30T17:57:55.923Z,99913.95
2023-04-30T18:00:23.574Z,99915.58
2023-04-30T18:02:51.170Z,99914.38
2023-04-30T18:05:18.024Z,99915.62
2023-04-30T18:07:44.708Z,99918.95
2023-04-30T18:10:11.409Z,99920.32
2023-04-30T18:12:38.385Z,99918.59
2023-04-30T18:15:06.830Z,99921.10
2023-04-30T18:17:37.224Z,99925.77
2023-04-30T18:20:04.719Z,99922.82
2023-04-30T18:22:32.049Z,99924.77
2023-04-30T18:24:59.578Z,99924.14
2023-04-30T18:27:26.267Z,99928.34
2023-04-30T18:29:52.962Z,99929.63
2023-04-30T18:32:19.896Z,99932.17
2023-04-30T18:34:47.221Z,99931.34
2023-04-30T18:37:14.048Z,99926.95
2023-04-30T18:39:41.211Z,99925.56
2023-04-30T18:42:09.535Z,99922.71
2023-04-30T18:44:36.611Z,99922.77
2023-04-30T18:47:04.770Z,99921.59
2023-04-30T18:49:32.208Z,99918.73
2023-04-30T18:52:00.880Z,99915.54
2023-04-30T18:54:28.301Z,99914.16
2023-04-30T18:56:55.168Z,99916.42
2023-04-30T18:59:22.772Z,99913.45
2023-04-30T19:01:50.129Z,99913.20
2023-04-30T19:04:17.026Z,99913.77
2023-04-30T19:06:44.642Z,99911.13
2023-04-30T19:09:11.900Z,99912.76
2023-04-30T19:11:38.591Z,99911.16
2023-04-30T19:14:06.388Z,99910.28
2023-04-30T19:16:33.249Z,99908.89
2023-04-30T19:19:00.112Z,99913.02
2023-04-30T19:21:28.522Z,99915.27
2023-04-30T19:23:57.372Z,99914.35
2023-04-30T19:26:25.470Z,99915.56
2023-04-30T19:32:37.662Z,99911.26
2023-04-30T19:35:05.008Z,99913.30
2023-04-30T19:37:31.716Z,99909.43
2023-04-30T19:39:58.374Z,99912.25
2023-04-30T19:42:25.171Z,99910.27
2023-04-30T19:44:53.033Z,99912.04
2023-04-30T19:47:19.822Z,99907.80
2023-04-30T19:49:47.458Z,99908.53
2023-04-30T19:52:14.769Z,99914.11
2023-04-30T19:54:48.568Z,99910.91
2023-04-30T19:57:15.725Z,99910.77
2023-04-30T19:59:43.013Z,99912.87
2023-04-30T20:02:09.970Z,99911.98
2023-04-30T20:04:37.055Z,99911.13
2023-04-30T20:07:04.048Z,99916.09
2023-04-30T20:09:30.965Z,99917.13
2023-04-30T20:11:57.793Z,99919.58
2023-04-30T20:14:24.524Z,99922.24
2023-04-30T20:16:55.036Z,99920.64
2023-04-30T20:19:22.172Z,99926.21
2023-04-30T20:21:52.288Z,99927.80
2023-04-30T20:24:19.247Z,99928.70
2023-04-30T20:26:45.956Z,99933.21
2023-04-30T20:29:12.830Z,99934.40
2023-04-30T20:31:40.433Z,99933.12
2023-04-30T20:34:07.421Z,99931.61
2023-04-30T20:36:34.388Z,99935.84
2023-04-30T20:39:01.427Z,99931.35
2023-04-30T20:41:30.449Z,99933.75
2023-04-30T20:43:59.993Z,99934.10
2023-04-30T20:46:28.379Z,99934.48
2023-04-30T20:49:01.111Z,99934.64
2023-04-30T20:51:28.634Z,99935.27
2023-04-30T20:53:55.449Z,99934.31
2023-04-30T20:56:22.385Z,99937.98
2023-04-30T20:58:49.200Z,99939.27
2023-04-30T21:01:16.066Z,99939.57
2023-04-30T21:03:42.836Z,99940.38
2023-04-30T21:06:10.990Z,99941.60
2023-04-30T21:08:37.790Z,99942.39
2023-04-30T21:11:04.447Z,99947.17
2023-04-30T21:13:31.253Z,99951.72
2023-04-30T21:15:58.022Z,99953.90
2023-04-30T21:18:27.269Z,99955.23
2023-04-30T21:20:54.014Z,99954.88
2023-04-30T21:23:20.641Z,99953.27
2023-04-30T21:25:47.609Z,99954.64
2023-04-30T21:28:14.637Z,99951.96
2023-04-30T21:30:41.388Z,99956.03
2023-04-30T21:33:08.534Z,99958.49
2023-04-30T21:35:35.280Z,99957.88
2023-04-30T21:38:02.094Z,99957.52
2023-04-30T21:40:32.194Z,99960.50
2023-04-30T21:42:59.315Z,99959.08
2023-04-30T21:45:25.989Z,99955.70
2023-04-30T21:47:52.808Z,99956.05
2023-04-30T21:50:19.461Z,99955.77
2023-04-30T21:52:46.114Z,99958.37
2023-04-30T21:55:12.790Z,99956.67
2023-04-30T21:57:39.696Z,99958.77
2023-04-30T22:00:07.455Z,99960.70
2023-04-30T22:02:34.972Z,99960.02
2023-04-30T22:05:02.292Z,99963.89
2023-04-30T22:07:29.465Z,99963.48
2023-04-30T22:09:57.580Z,99963.81
2023-04-30T22:12:25.273Z,99961.11
2023-04-30T22:14:55.312Z,99958.38
2023-04-30T22:17:22.680Z,99956.40
2023-04-30T22:19:49.550Z,99960.90
2023-04-30T22:22:16.619Z,99961.76
2023-04-30T22:24:43.282Z,99960.95
2023-04-30T22:27:09.904Z,99960.63
2023-04-30T22:29:36.776Z,99960.48
2023-04-30T22:32:04.261Z,99960.00
2023-04-30T22:34:31.217Z,99962.42
2023-04-30T22:36:57.907Z,99967.65
2023-04-30T22:39:24.577Z,99973.48
2023-04-30T22:41:51.304Z,99983.14
2023-04-30T22:44:18.062Z,99984.84
2023-04-30T22:46:44.726Z,99983.94
2023-04-30T22:49:17.087Z,99985.40
2023-04-30T22:51:54.181Z,99985.95
2023-04-30T22:54:20.882Z,99982.36
2023-04-30T22:56:47.491Z,99989.35
2023-04-30T22:59:14.173Z,99987.39
2023-04-30T23:01:40.846Z,99985.56
2023-04-30T23:04:07.501Z,99985.73
2023-04-30T23:06:34.301Z,99985.92
2023-04-30T23:09:01.000Z,99984.84
2023-04-30T23:11:27.655Z,99984.65
2023-04-30T23:13:54.339Z,99983.08
2023-04-30T23:16:20.984Z,99981.98
2023-04-30T23:18:48.855Z,99977.19
2023-04-30T23:21:15.695Z,99982.95
2023-04-30T23:23:42.300Z,99989.05
2023-04-30T23:26:08.905Z,99983.47
2023-04-30T23:28:37.973Z,99984.95
2023-04-30T23:31:04.651Z,99991.00
2023-04-30T23:33:31.267Z,99993.04
2023-04-30T23:35:57.952Z,99991.92
2023-04-30T23:38:24.556Z,99988.63
2023-04-30T23:40:51.256Z,99989.17
2023-04-30T23:43:18.163Z,99987.70
2023-04-30T23:45:44.841Z,99983.34
2023-04-30T23:48:11.634Z,99977.23
2023-04-30T23:50:38.410Z,99978.53
2023-04-30T23:53:05.232Z,99979.30
2023-04-30T23:55:31.898Z,99978.42
2023-04-30T23:57:58.550Z,99980.06
